createdAt,value
2018-11-05T00:00:39.942Z,100515.80
2018-11-05T00:03:08.028Z,100513.94
2018-11-05T00:05:35.778Z,100515.80
2018-11-05T00:08:03.734Z,100515.98
2018-11-05T00:10:31.445Z,100515.25
2018-11-05T00:12:59.218Z,100513.28
2018-11-05T00:15:26.996Z,100516.84
2018-11-05T00:17:54.757Z,100517.23
2018-11-05T00:20:22.503Z,100520.54
2018-11-05T00:22:50.230Z,100517.70
2018-11-05T00:25:17.983Z,100515.89
2018-11-05T00:27:45.901Z,100519.27
2018-11-05T00:30:14.359Z,100518.69
2018-11-05T00:32:42.634Z,100519.80
2018-11-05T00:35:10.567Z,100524.87
2018-11-05T00:37:38.305Z,100515.52
2018-11-05T00:40:07.914Z,100513.00
2018-11-05T00:42:35.650Z,100510.62
2018-11-05T00:45:04.007Z,100508.84
2018-11-05T00:47:31.732Z,100502.53
2018-11-05T00:49:59.474Z,100507.27
2018-11-05T00:52:27.214Z,100511.28
2018-11-05T00:54:54.946Z,100510.37
2018-11-05T00:57:22.665Z,100507.06
2018-11-05T00:59:50.430Z,100503.11
2018-11-05T01:02:18.167Z,100502.98
2018-11-05T01:04:45.890Z,100504.97
2018-11-05T01:07:13.614Z,100502.58
2018-11-05T01:09:41.371Z,100494.83
2018-11-05T01:12:09.117Z,100490.15
2018-11-05T01:14:36.843Z,100492.72
2018-11-05T01:17:04.835Z,100490.33
2018-11-05T01:19:32.553Z,100495.03
2018-11-05T01:22:00.292Z,100488.61
2018-11-05T01:24:28.022Z,100484.60
2018-11-05T01:26:55.746Z,100477.55
2018-11-05T01:29:23.486Z,100480.18
2018-11-05T01:31:51.454Z,100479.98
2018-11-05T01:34:19.179Z,100479.94
2018-11-05T01:36:46.906Z,100477.30
2018-11-05T01:39:14.637Z,100473.45
2018-11-05T01:41:42.357Z,100479.19
2018-11-05T01:44:10.082Z,100481.75
2018-11-05T01:46:37.798Z,100481.05
2018-11-05T01:49:05.586Z,100480.84
2018-11-05T01:51:33.350Z,100485.05
2018-11-05T01:54:01.087Z,100480.05
2018-11-05T01:56:28.861Z,100484.34
2018-11-05T01:58:56.599Z,100481.17
2018-11-05T02:01:24.338Z,100481.17
2018-11-05T02:03:52.072Z,100481.43
2018-11-05T02:06:19.838Z,100478.34
2018-11-05T02:08:47.562Z,100487.81
2018-11-05T02:11:15.276Z,100479.00
2018-11-05T02:13:43.013Z,100478.92
2018-11-05T02:16:10.857Z,100476.28
2018-11-05T02:18:38.490Z,100474.09
2018-11-05T02:21:06.214Z,100474.26
2018-11-05T02:23:33.943Z,100466.92
2018-11-05T02:26:01.668Z,100464.62
2018-11-05T02:28:29.398Z,100468.38
2018-11-05T02:30:57.118Z,100468.78
2018-11-05T02:33:24.847Z,100469.36
2018-11-05T02:35:52.563Z,100465.27
2018-11-05T02:38:20.391Z,100459.47
2018-11-05T02:40:48.103Z,100459.67
2018-11-05T02:43:15.847Z,100460.13
2018-11-05T02:45:43.555Z,100459.88
2018-11-05T02:48:11.282Z,100458.52
2018-11-05T02:50:39.003Z,100461.67
2018-11-05T02:53:06.723Z,100455.18
2018-11-05T02:55:34.459Z,100453.98
2018-11-05T02:58:02.175Z,100455.86
2018-11-05T03:00:29.902Z,100446.52
2018-11-05T03:02:57.732Z,100452.12
2018-11-05T03:05:25.475Z,100451.33
2018-11-05T03:07:53.203Z,100445.70
2018-11-05T03:10:20.934Z,100455.27
2018-11-05T03:12:48.855Z,100453.86
2018-11-05T03:15:17.498Z,100454.06
2018-11-05T03:17:45.254Z,100453.33
2018-11-05T03:20:13.958Z,100452.09
2018-11-05T03:22:42.186Z,100450.97
2018-11-05T03:25:09.998Z,100446.80
2018-11-05T03:27:38.128Z,100448.25
2018-11-05T03:30:08.493Z,100441.78
2018-11-05T03:32:36.264Z,100440.80
2018-11-05T03:35:04.774Z,100436.59
2018-11-05T03:37:32.491Z,100436.46
2018-11-05T03:40:00.231Z,100437.28
2018-11-05T03:42:27.976Z,100446.27
2018-11-05T03:44:55.690Z,100440.47
2018-11-05T03:47:23.431Z,100441.13
2018-11-05T03:49:51.162Z,100437.28
2018-11-05T03:52:18.906Z,100443.34
2018-11-05T03:54:46.633Z,100435.63
2018-11-05T03:57:14.373Z,100431.48
2018-11-05T03:59:42.084Z,100431.92
2018-11-05T04:02:09.856Z,100428.58
2018-11-05T04:04:37.578Z,100438.36
2018-11-05T04:07:05.511Z,100440.53
2018-11-05T04:09:33.239Z,100441.89
2018-11-05T04:12:00.976Z,100444.87
2018-11-05T04:14:28.728Z,100447.30
2018-11-05T04:16:56.474Z,100447.30
2018-11-05T04:19:24.203Z,100448.33
2018-11-05T04:21:51.926Z,100445.98
2018-11-05T04:24:19.651Z,100454.48
2018-11-05T04:26:47.385Z,100455.80
2018-11-05T04:29:15.114Z,100464.08
2018-11-05T04:31:42.862Z,100460.33
2018-11-05T04:34:11.692Z,100463.33
2018-11-05T04:36:39.448Z,100471.70
2018-11-05T04:39:10.522Z,100462.95
2018-11-05T04:41:38.667Z,100463.91
2018-11-05T04:44:06.546Z,100470.91
2018-11-05T04:46:34.407Z,100473.43
2018-11-05T04:49:02.179Z,100473.30
2018-11-05T04:51:30.157Z,100475.11
2018-11-05T04:53:57.898Z,100472.75
2018-11-05T04:56:25.630Z,100481.55
2018-11-05T04:58:53.354Z,100482.22
2018-11-05T05:01:21.107Z,100479.91
2018-11-05T05:03:48.841Z,100480.16
2018-11-05T05:06:16.578Z,100475.41
2018-11-05T05:08:44.314Z,100474.42
2018-11-05T05:11:12.056Z,100485.10
2018-11-05T05:13:39.794Z,100482.47
2018-11-05T05:16:07.552Z,100486.09
2018-11-05T05:18:35.286Z,100488.48
2018-11-05T05:21:03.038Z,100485.42
2018-11-05T05:23:30.750Z,100493.75
2018-11-05T05:25:58.487Z,100493.02
2018-11-05T05:28:26.238Z,100500.43
2018-11-05T05:30:53.971Z,100500.27
2018-11-05T05:33:21.755Z,100505.41
2018-11-05T05:35:49.483Z,100504.23
2018-11-05T05:38:17.227Z,100505.37
2018-11-05T05:40:45.021Z,100514.94
2018-11-05T05:43:12.748Z,100513.25
2018-11-05T05:45:40.537Z,100515.84
2018-11-05T05:48:08.317Z,100518.28
2018-11-05T05:50:36.063Z,100517.21
2018-11-05T05:53:03.797Z,100516.71
2018-11-05T05:55:33.093Z,100521.33
2018-11-05T05:58:00.827Z,100518.81
2018-11-05T06:00:28.549Z,100517.30
2018-11-05T06:02:56.264Z,100520.34
2018-11-05T06:05:24.078Z,100526.73
2018-11-05T06:07:51.813Z,100525.66
2018-11-05T06:10:19.541Z,100518.28
2018-11-05T06:12:47.267Z,100526.06
2018-11-05T06:15:16.050Z,100531.92
2018-11-05T06:17:43.818Z,100526.19
2018-11-05T06:20:16.016Z,100523.10
2018-11-05T06:22:44.618Z,100534.97
2018-11-05T06:25:12.406Z,100533.91
2018-11-05T06:27:40.188Z,100530.86
2018-11-05T06:30:11.114Z,100533.57
2018-11-05T06:32:40.246Z,100537.41
2018-11-05T06:35:09.033Z,100532.37
2018-11-05T06:37:37.098Z,100540.70
2018-11-05T06:40:05.225Z,100534.44
2018-11-05T06:42:32.966Z,100533.78
2018-11-05T06:45:00.761Z,100539.10
2018-11-05T06:47:29.207Z,100531.52
2018-11-05T06:49:56.923Z,100532.66
2018-11-05T06:52:24.674Z,100532.79
2018-11-05T06:54:52.442Z,100533.57
2018-11-05T06:57:20.158Z,100538.11
2018-11-05T06:59:47.931Z,100536.46
2018-11-05T07:02:15.712Z,100536.45
2018-11-05T07:04:43.449Z,100532.82
2018-11-05T07:07:17.855Z,100530.39
2018-11-05T07:09:45.658Z,100536.38
2018-11-05T07:14:57.158Z,100533.67
2018-11-05T07:17:24.915Z,100531.63
2018-11-05T07:19:52.677Z,100528.65
2018-11-05T07:22:20.464Z,100527.69
2018-11-05T07:24:48.214Z,100528.48
2018-11-05T07:27:15.974Z,100532.72
2018-11-05T07:29:43.710Z,100536.55
2018-11-05T07:32:11.474Z,100536.78
2018-11-05T07:34:39.243Z,100535.36
2018-11-05T07:37:07.006Z,100536.62
2018-11-05T07:39:34.774Z,100541.58
2018-11-05T07:42:02.537Z,100550.55
2018-11-05T07:44:30.271Z,100547.51
2018-11-05T07:46:58.027Z,100549.98
2018-11-05T07:49:25.775Z,100544.48
2018-11-05T07:51:53.534Z,100542.26
2018-11-05T07:54:21.254Z,100547.66
2018-11-05T07:56:49.112Z,100544.36
2018-11-05T07:59:16.815Z,100547.78
2018-11-05T08:01:44.574Z,100553.95
2018-11-05T08:04:12.351Z,100560.22
2018-11-05T08:06:40.095Z,100561.89
2018-11-05T08:09:09.922Z,100568.23
2018-11-05T08:11:37.999Z,100566.20
2018-11-05T08:14:06.045Z,100564.12
2018-11-05T08:16:33.785Z,100561.77
2018-11-05T08:19:01.594Z,100560.34
2018-11-05T08:21:29.335Z,100561.63
2018-11-05T08:23:57.065Z,100565.08
2018-11-05T08:26:24.836Z,100573.53
2018-11-05T08:28:52.646Z,100571.36
2018-11-05T08:31:20.815Z,100572.44
2018-11-05T08:33:48.562Z,100572.20
2018-11-05T08:36:16.330Z,100566.27
2018-11-05T08:38:44.154Z,100569.16
2018-11-05T08:41:11.919Z,100576.41
2018-11-05T08:43:40.576Z,100575.39
2018-11-05T08:46:08.306Z,100577.75
2018-11-05T08:48:36.098Z,100575.44
2018-11-05T08:51:04.098Z,100579.23
2018-11-05T08:53:31.710Z,100571.58
2018-11-05T08:55:59.473Z,100570.52
2018-11-05T08:58:27.204Z,100570.42
2018-11-05T09:01:00.332Z,100573.92
2018-11-05T09:03:28.041Z,100577.12
2018-11-05T09:05:55.770Z,100577.61
2018-11-05T09:08:23.794Z,100574.09
2018-11-05T09:10:51.797Z,100579.91
2018-11-05T09:13:19.286Z,100573.95
2018-11-05T09:15:47.030Z,100571.22
2018-11-05T09:18:14.780Z,100575.73
2018-11-05T09:20:42.578Z,100569.01
2018-11-05T09:23:10.351Z,100572.97
2018-11-05T09:25:38.146Z,100573.52
2018-11-05T09:28:06.344Z,100560.59
2018-11-05T09:30:34.067Z,100559.03
2018-11-05T09:33:01.803Z,100554.98
2018-11-05T09:35:29.538Z,100561.08
2018-11-05T09:37:57.252Z,100552.23
2018-11-05T09:40:25.034Z,100547.52
2018-11-05T09:42:53.261Z,100539.12
2018-11-05T09:45:23.236Z,100540.67
2018-11-05T09:47:51.090Z,100539.07
2018-11-05T09:50:19.347Z,100536.94
2018-11-05T09:52:47.061Z,100535.11
2018-11-05T09:55:15.322Z,100530.42
2018-11-05T09:57:43.082Z,100528.01
2018-11-05T10:00:16.888Z,100520.57
2018-11-05T10:02:50.096Z,100522.30
2018-11-05T10:05:17.846Z,100521.58
2018-11-05T10:07:45.850Z,100525.25
2018-11-05T10:10:14.318Z,100511.89
2018-11-05T10:12:42.350Z,100507.21
2018-11-05T10:15:11.269Z,100498.19
2018-11-05T10:17:39.335Z,100502.78
2018-11-05T10:20:10.679Z,100498.41
2018-11-05T10:22:38.435Z,100497.63
2018-11-05T10:25:07.776Z,100490.33
2018-11-05T10:27:35.366Z,100488.00
2018-11-05T10:30:03.471Z,100483.89
2018-11-05T10:32:31.322Z,100479.69
2018-11-05T10:34:59.166Z,100479.54
2018-11-05T10:37:26.923Z,100477.73
2018-11-05T10:39:54.678Z,100477.03
2018-11-05T10:42:22.462Z,100467.81
2018-11-05T10:44:50.193Z,100464.97
2018-11-05T10:47:17.943Z,100466.38
2018-11-05T10:49:45.687Z,100460.02
2018-11-05T10:52:13.642Z,100465.23
2018-11-05T10:54:41.160Z,100464.52
2018-11-05T10:57:08.899Z,100467.02
2018-11-05T10:59:36.685Z,100452.69
2018-11-05T11:02:10.062Z,100448.09
2018-11-05T11:04:37.786Z,100448.96
2018-11-05T11:07:05.556Z,100444.04
2018-11-05T11:09:33.334Z,100442.81
2018-11-05T11:12:01.027Z,100437.39
2018-11-05T11:14:29.337Z,100433.55
2018-11-05T11:16:57.211Z,100427.39
2018-11-05T11:19:25.571Z,100423.98
2018-11-05T11:21:53.366Z,100429.98
2018-11-05T11:24:21.108Z,100432.86
2018-11-05T11:26:48.854Z,100424.53
2018-11-05T11:29:16.636Z,100421.64
2018-11-05T11:31:44.447Z,100415.52
2018-11-05T11:34:12.179Z,100415.28
2018-11-05T11:36:40.018Z,100410.81
2018-11-05T11:39:09.805Z,100412.02
2018-11-05T11:41:37.555Z,100406.45
2018-11-05T11:44:05.896Z,100399.82
2018-11-05T11:46:33.851Z,100400.55
2018-11-05T11:49:01.563Z,100399.06
2018-11-05T11:51:29.283Z,100395.14
2018-11-05T11:53:57.043Z,100390.05
2018-11-05T11:56:24.788Z,100393.41
2018-11-05T11:58:52.525Z,100396.46
2018-11-05T12:01:20.262Z,100390.41
2018-11-05T12:03:48.019Z,100392.25
2018-11-05T12:06:15.755Z,100383.07
2018-11-05T12:08:43.483Z,100384.14
2018-11-05T12:11:11.202Z,100382.56
2018-11-05T12:13:38.926Z,100376.98
2018-11-05T12:16:06.688Z,100372.44
2018-11-05T12:18:34.405Z,100369.37
2018-11-05T12:21:02.135Z,100367.53
2018-11-05T12:23:29.934Z,100363.50
2018-11-05T12:25:57.690Z,100354.53
2018-11-05T12:28:25.515Z,100356.98
2018-11-05T12:30:53.226Z,100352.16
2018-11-05T12:33:20.970Z,100352.16
2018-11-05T12:35:48.715Z,100351.88
2018-11-05T12:38:16.475Z,100349.98
2018-11-05T12:40:44.230Z,100352.14
2018-11-05T12:43:11.965Z,100340.19
2018-11-05T12:45:39.686Z,100337.33
2018-11-05T12:48:07.463Z,100338.34
2018-11-05T12:50:35.285Z,100332.24
2018-11-05T12:53:02.996Z,100327.91
2018-11-05T12:55:30.818Z,100328.66
2018-11-05T12:57:58.638Z,100321.88
2018-11-05T13:00:26.446Z,100327.31
2018-11-05T13:02:59.580Z,100323.70
2018-11-05T13:05:28.329Z,100322.69
2018-11-05T13:07:56.151Z,100322.95
2018-11-05T13:10:24.106Z,100318.94
2018-11-05T13:12:51.977Z,100323.69
2018-11-05T13:15:19.959Z,100320.83
2018-11-05T13:17:47.610Z,100314.47
2018-11-05T13:20:17.454Z,100320.30
2018-11-05T13:22:45.435Z,100312.78
2018-11-05T13:25:13.192Z,100309.14
2018-11-05T13:27:42.410Z,100314.58
2018-11-05T13:30:11.131Z,100309.16
2018-11-05T13:32:39.435Z,100308.86
2018-11-05T13:35:08.847Z,100306.03
2018-11-05T13:37:36.934Z,100308.48
2018-11-05T13:40:05.255Z,100314.09
2018-11-05T13:42:33.086Z,100306.89
2018-11-05T13:45:00.874Z,100306.19
2018-11-05T13:47:29.148Z,100305.20
2018-11-05T13:49:56.790Z,100306.30
2018-11-05T13:52:24.399Z,100303.81
2018-11-05T13:54:52.402Z,100297.39
2018-11-05T13:57:20.212Z,100298.48
2018-11-05T13:59:47.967Z,100291.83
2018-11-05T14:02:15.734Z,100295.95
2018-11-05T14:04:43.473Z,100296.86
2018-11-05T14:07:11.247Z,100298.44
2018-11-05T14:09:39.007Z,100298.50
2018-11-05T14:12:06.739Z,100286.28
2018-11-05T14:14:34.483Z,100296.17
2018-11-05T14:17:02.259Z,100290.12
2018-11-05T14:19:29.966Z,100284.20
2018-11-05T14:21:57.703Z,100297.89
2018-11-05T14:24:25.439Z,100293.83
2018-11-05T14:26:53.146Z,100288.79
2018-11-05T14:29:21.418Z,100291.86
2018-11-05T14:31:48.638Z,100287.52
2018-11-05T14:34:16.366Z,100292.97
2018-11-05T14:36:44.190Z,100294.91
2018-11-05T14:39:13.392Z,100296.00
2018-11-05T14:41:41.510Z,100291.95
2018-11-05T14:44:09.687Z,100295.88
2018-11-05T14:46:37.415Z,100293.58
2018-11-05T14:49:05.280Z,100295.77
2018-11-05T14:51:33.387Z,100296.00
2018-11-05T14:54:01.096Z,100293.64
2018-11-05T14:56:28.838Z,100294.87
2018-11-05T14:58:56.703Z,100297.30
2018-11-05T15:01:24.460Z,100302.20
2018-11-05T15:03:52.411Z,100303.83
2018-11-05T15:06:20.191Z,100299.19
2018-11-05T15:08:47.974Z,100298.33
2018-11-05T15:11:15.746Z,100304.87
2018-11-05T15:13:44.082Z,100304.72
2018-11-05T15:16:11.804Z,100299.92
2018-11-05T15:18:39.632Z,100300.78
2018-11-05T15:21:07.604Z,100306.07
2018-11-05T15:23:35.343Z,100304.44
2018-11-05T15:26:03.158Z,100310.42
2018-11-05T15:28:30.883Z,100308.80
2018-11-05T15:30:58.689Z,100305.92
2018-11-05T15:33:26.416Z,100314.27
2018-11-05T15:35:54.160Z,100319.14
2018-11-05T15:38:22.137Z,100315.50
2018-11-05T15:40:49.870Z,100321.72
2018-11-05T15:43:17.596Z,100326.99
2018-11-05T15:45:45.322Z,100319.70
2018-11-05T15:48:13.841Z,100328.09
2018-11-05T15:50:41.567Z,100327.59
2018-11-05T15:53:09.586Z,100335.84
2018-11-05T15:55:37.078Z,100329.70
2018-11-05T15:58:05.155Z,100342.53
2018-11-05T16:00:32.909Z,100339.48
2018-11-05T16:03:01.502Z,100343.08
2018-11-05T16:05:29.255Z,100346.86
2018-11-05T16:07:56.994Z,100337.30
2018-11-05T16:10:25.037Z,100346.49
2018-11-05T16:12:53.061Z,100342.50
2018-11-05T16:15:20.824Z,100349.05
2018-11-05T16:17:48.542Z,100351.28
2018-11-05T16:20:17.502Z,100348.55
2018-11-05T16:22:45.794Z,100361.76
2018-11-05T16:25:13.536Z,100358.40
2018-11-05T16:27:41.587Z,100365.17
2018-11-05T16:30:11.131Z,100361.13
2018-11-05T16:32:38.900Z,100364.45
2018-11-05T16:35:06.858Z,100368.86
2018-11-05T16:37:34.533Z,100369.36
2018-11-05T16:40:02.646Z,100363.41
2018-11-05T16:42:30.315Z,100365.77
2018-11-05T16:44:58.177Z,100364.34
2018-11-05T16:47:25.922Z,100363.95
2018-11-05T16:49:53.658Z,100375.19
2018-11-05T16:52:21.381Z,100369.35
2018-11-05T16:54:49.114Z,100366.13
2018-11-05T16:57:16.889Z,100367.18
2018-11-05T16:59:44.616Z,100372.87
2018-11-05T17:02:13.703Z,100368.55
2018-11-05T17:04:42.029Z,100366.58
2018-11-05T17:07:09.863Z,100373.82
2018-11-05T17:09:37.866Z,100370.94
2018-11-05T17:12:06.031Z,100367.36
2018-11-05T17:14:33.789Z,100371.79
2018-11-05T17:17:01.798Z,100367.31
2018-11-05T17:19:30.038Z,100370.92
2018-11-05T17:21:57.935Z,100367.64
2018-11-05T17:24:25.878Z,100372.33
2018-11-05T17:26:53.603Z,100367.34
2018-11-05T17:29:21.367Z,100365.17
2018-11-05T17:31:49.119Z,100369.32
2018-11-05T17:34:16.853Z,100372.89
2018-11-05T17:36:44.594Z,100371.91
2018-11-05T17:39:13.046Z,100371.99
2018-11-05T17:41:41.129Z,100374.41
2018-11-05T17:44:10.238Z,100372.55
2018-11-05T17:46:38.059Z,100374.89
2018-11-05T17:49:06.484Z,100373.80
2018-11-05T17:51:34.229Z,100375.03
2018-11-05T17:54:02.091Z,100376.50
2018-11-05T17:56:30.019Z,100382.19
2018-11-05T17:58:57.740Z,100378.16
2018-11-05T18:01:25.798Z,100385.73
2018-11-05T18:03:53.551Z,100388.09
2018-11-05T18:06:21.315Z,100384.66
2018-11-05T18:08:49.101Z,100388.27
2018-11-05T18:11:16.915Z,100385.38
2018-11-05T18:13:44.659Z,100388.54
2018-11-05T18:16:12.383Z,100386.34
2018-11-05T18:18:40.562Z,100396.04
2018-11-05T18:21:08.390Z,100392.61
2018-11-05T18:23:36.197Z,100394.62
2018-11-05T18:26:03.987Z,100392.20
2018-11-05T18:28:31.731Z,100388.61
2018-11-05T18:30:59.491Z,100393.53
2018-11-05T18:33:27.204Z,100391.80
2018-11-05T18:35:54.958Z,100394.83
2018-11-05T18:38:22.687Z,100393.79
2018-11-05T18:40:50.419Z,100405.12
2018-11-05T18:43:18.147Z,100400.46
2018-11-05T18:45:45.895Z,100404.57
2018-11-05T18:48:13.631Z,100407.83
2018-11-05T18:50:41.374Z,100404.34
2018-11-05T18:53:09.134Z,100404.89
2018-11-05T18:55:36.850Z,100401.05
2018-11-05T18:58:04.706Z,100405.24
2018-11-05T19:00:32.435Z,100404.79
2018-11-05T19:03:00.185Z,100409.25
2018-11-05T19:05:28.839Z,100414.59
2018-11-05T19:07:56.740Z,100414.47
2018-11-05T19:10:24.466Z,100416.39
2018-11-05T19:12:52.879Z,100413.72
2018-11-05T19:15:20.766Z,100415.16
2018-11-05T19:17:49.171Z,100413.39
2018-11-05T19:20:17.294Z,100416.65
2018-11-05T19:22:45.353Z,100416.98
2018-11-05T19:25:13.846Z,100413.13
2018-11-05T19:27:41.907Z,100418.09
2018-11-05T19:30:16.152Z,100413.81
2018-11-05T19:32:44.309Z,100415.85
2018-11-05T19:35:12.399Z,100404.72
2018-11-05T19:37:40.755Z,100410.03
2018-11-05T19:40:10.171Z,100417.16
2018-11-05T19:42:38.215Z,100412.97
2018-11-05T19:45:08.023Z,100418.32
2018-11-05T19:47:35.772Z,100416.20
2018-11-05T19:50:03.782Z,100420.63
2018-11-05T19:52:31.539Z,100421.11
2018-11-05T19:54:59.373Z,100430.54
2018-11-05T19:57:27.119Z,100430.48
2018-11-05T19:59:54.835Z,100428.34
2018-11-05T20:02:27.112Z,100424.38
2018-11-05T20:04:55.053Z,100431.01
2018-11-05T20:07:22.787Z,100434.91
2018-11-05T20:09:50.514Z,100428.89
2018-11-05T20:12:18.239Z,100439.66
2018-11-05T20:14:46.026Z,100438.56
2018-11-05T20:17:13.760Z,100435.20
2018-11-05T20:19:41.615Z,100441.18
2018-11-05T20:22:09.381Z,100434.35
2018-11-05T20:24:37.079Z,100441.16
2018-11-05T20:27:05.005Z,100439.46
2018-11-05T20:29:32.760Z,100430.16
2018-11-05T20:32:00.677Z,100431.32
2018-11-05T20:34:28.452Z,100430.98
2018-11-05T20:36:56.027Z,100436.42
2018-11-05T20:39:23.747Z,100431.83
2018-11-05T20:41:51.471Z,100435.32
2018-11-05T20:44:19.210Z,100428.64
2018-11-05T20:46:47.220Z,100434.32
2018-11-05T20:49:14.856Z,100424.91
2018-11-05T20:51:42.578Z,100431.44
2018-11-05T20:54:10.344Z,100427.12
2018-11-05T20:56:38.319Z,100425.73
2018-11-05T20:59:06.039Z,100416.98
2018-11-05T21:01:33.770Z,100423.48
2018-11-05T21:04:01.513Z,100423.16
2018-11-05T21:06:29.232Z,100424.70
2018-11-05T21:08:56.949Z,100419.53
2018-11-05T21:11:24.671Z,100417.02
2018-11-05T21:13:52.385Z,100418.17
2018-11-05T21:16:20.087Z,100421.06
2018-11-05T21:18:47.805Z,100415.33
2018-11-05T21:21:15.631Z,100415.82
2018-11-05T21:23:43.384Z,100424.47
2018-11-05T21:26:11.108Z,100424.97
2018-11-05T21:28:38.841Z,100429.11
2018-11-05T21:31:06.566Z,100428.64
2018-11-05T21:33:34.293Z,100432.99
2018-11-05T21:36:02.019Z,100430.64
2018-11-05T21:38:29.755Z,100439.40
2018-11-05T21:40:57.472Z,100439.05
2018-11-05T21:43:25.191Z,100432.78
2018-11-05T21:45:52.904Z,100439.67
2018-11-05T21:48:20.659Z,100448.77
2018-11-05T21:50:48.374Z,100443.32
2018-11-05T21:53:16.098Z,100442.17
2018-11-05T21:55:43.838Z,100452.16
2018-11-05T21:58:11.569Z,100448.67
2018-11-05T22:00:39.278Z,100456.18
2018-11-05T22:03:12.435Z,100450.91
2018-11-05T22:05:40.165Z,100454.98
2018-11-05T22:08:07.898Z,100448.56
2018-11-05T22:10:35.638Z,100455.06
2018-11-05T22:13:03.482Z,100462.41
2018-11-05T22:15:47.918Z,100459.08
2018-11-05T22:18:16.717Z,100456.95
2018-11-05T22:20:44.482Z,100451.53
2018-11-05T22:23:12.202Z,100459.50
2018-11-05T22:25:39.934Z,100455.80
2018-11-05T22:28:07.652Z,100458.58
2018-11-05T22:30:35.415Z,100453.38
2018-11-05T22:33:03.304Z,100454.03
2018-11-05T22:35:31.120Z,100447.62
2018-11-05T22:37:58.939Z,100452.72
2018-11-05T22:40:26.627Z,100449.45
2018-11-05T22:42:54.592Z,100452.15
2018-11-05T22:45:22.327Z,100447.78
2018-11-05T22:47:50.099Z,100444.86
2018-11-05T22:50:17.855Z,100449.67
2018-11-05T22:52:45.598Z,100445.30
2018-11-05T22:55:13.341Z,100448.80
2018-11-05T22:57:41.073Z,100451.20
2018-11-05T23:00:19.757Z,100447.84
2018-11-05T23:02:53.106Z,100444.92
2018-11-05T23:05:21.085Z,100447.14
2018-11-05T23:07:49.461Z,100451.92
2018-11-05T23:10:17.169Z,100447.09
2018-11-05T23:12:44.999Z,100443.67
2018-11-05T23:15:12.730Z,100437.86
2018-11-05T23:17:40.554Z,100435.97
2018-11-05T23:20:09.101Z,100433.05
2018-11-05T23:22:36.846Z,100438.75
2018-11-05T23:25:04.797Z,100433.89
2018-11-05T23:27:32.610Z,100431.86
2018-11-05T23:30:00.554Z,100424.90
2018-11-05T23:32:28.283Z,100432.12
2018-11-05T23:34:56.039Z,100428.55
2018-11-05T23:37:23.803Z,100433.44
2018-11-05T23:39:51.524Z,100431.59
2018-11-05T23:42:19.251Z,100427.95
2018-11-05T23:44:46.955Z,100429.01
2018-11-05T23:47:14.757Z,100434.20
2018-11-05T23:49:42.471Z,100430.94
2018-11-05T23:52:10.263Z,100426.33
2018-11-05T23:54:37.947Z,100422.61
2018-11-05T23:57:05.863Z,100420.76
2018-11-05T23:59:33.606Z,100423.58
